sensor_id;sensor_type;location;lat;lon;timestamp;pressure;altitude;pressure_sealevel;temperature;humidity
70930;BME280;58588;48.102;19.682;2023-04-26T00:02:18;98705.31;;;2.86;100.00
70930;BME280;58588;48.102;19.682;2023-04-26T00:05:20;98720.88;;;2.73;100.00
70930;BME280;58588;48.102;19.682;2023-04-26T00:08:22;98709.84;;;2.67;100.00
70930;BME280;58588;48.102;19.682;2023-04-26T00:11:24;98718.19;;;2.73;100.00
70930;BME280;58588;48.102;19.682;2023-04-26T00:14:26;98712.66;;;2.66;100.00
70930;BME280;58588;48.102;19.682;2023-04-26T00:17:30;98725.06;;;2.57;100.00
70930;BME280;58588;48.102;19.682;2023-04-26T00:20:32;98729.25;;;2.60;100.00
70930;BME280;58588;48.102;19.682;2023-04-26T00:23:34;98729.88;;;2.36;100.00
70930;BME280;58588;48.102;19.682;2023-04-26T00:26:37;98732.31;;;2.47;100.00
70930;BME280;58588;48.102;19.682;2023-04-26T00:29:39;98740.56;;;2.44;100.00
70930;BME280;58588;48.102;19.682;2023-04-26T00:32:43;98740.28;;;2.29;100.00
70930;BME280;58588;48.102;19.682;2023-04-26T00:35:46;98754.19;;;2.41;100.00
70930;BME280;58588;48.102;19.682;2023-04-26T00:38:48;98750.53;;;2.42;100.00
70930;BME280;58588;48.102;19.682;2023-04-26T00:41:50;98751.91;;;2.28;100.00
70930;BME280;58588;48.102;19.682;2023-04-26T00:44:52;98752.44;;;2.32;100.00
70930;BME280;58588;48.102;19.682;2023-04-26T00:47:59;98750.38;;;2.26;100.00
70930;BME280;58588;48.102;19.682;2023-04-26T00:51:03;98740.66;;;2.17;100.00
70930;BME280;58588;48.102;19.682;2023-04-26T00:54:05;98756.22;;;2.11;100.00
70930;BME280;58588;48.102;19.682;2023-04-26T00:57:08;98753.41;;;2.13;100.00
70930;BME280;58588;48.102;19.682;2023-04-26T01:00:10;98754.94;;;2.15;100.00
70930;BME280;58588;48.102;19.682;2023-04-26T01:03:14;98760.56;;;2.30;100.00
70930;BME280;58588;48.102;19.682;2023-04-26T01:06:16;98763.47;;;2.37;100.00
70930;BME280;58588;48.102;19.682;2023-04-26T01:09:18;98759.50;;;2.41;100.00
70930;BME280;58588;48.102;19.682;2023-04-26T01:12:21;98756.84;;;2.41;100.00
70930;BME280;58588;48.102;19.682;2023-04-26T01:15:24;98759.59;;;2.31;100.00
70930;BME280;58588;48.102;19.682;2023-04-26T01:18:29;98769.94;;;2.52;100.00
70930;BME280;58588;48.102;19.682;2023-04-26T01:21:31;98770.59;;;2.54;100.00
70930;BME280;58588;48.102;19.682;2023-04-26T01:24:35;98770.97;;;2.59;100.00
70930;BME280;58588;48.102;19.682;2023-04-26T01:27:37;98768.16;;;2.43;100.00
70930;BME280;58588;48.102;19.682;2023-04-26T01:30:39;98766.66;;;2.23;100.00
70930;BME280;58588;48.102;19.682;2023-04-26T01:33:41;98771.47;;;2.09;100.00
70930;BME280;58588;48.102;19.682;2023-04-26T01:36:43;98763.50;;;2.09;100.00
70930;BME280;58588;48.102;19.682;2023-04-26T01:39:47;98766.91;;;2.02;100.00
70930;BME280;58588;48.102;19.682;2023-04-26T01:42:49;98775.22;;;1.99;100.00
70930;BME280;58588;48.102;19.682;2023-04-26T01:45:51;98771.78;;;2.06;100.00
70930;BME280;58588;48.102;19.682;2023-04-26T01:48:53;98771.25;;;2.03;100.00
70930;BME280;58588;48.102;19.682;2023-04-26T01:51:55;98779.94;;;2.05;100.00
70930;BME280;58588;48.102;19.682;2023-04-26T01:54:58;98779.38;;;2.01;100.00
70930;BME280;58588;48.102;19.682;2023-04-26T01:58:00;98790.31;;;1.98;100.00
70930;BME280;58588;48.102;19.682;2023-04-26T02:01:05;98795.38;;;1.92;100.00
70930;BME280;58588;48.102;19.682;2023-04-26T02:04:08;98785.41;;;1.76;100.00
70930;BME280;58588;48.102;19.682;2023-04-26T02:07:10;98787.03;;;1.86;100.00
70930;BME280;58588;48.102;19.682;2023-04-26T02:10:13;98791.09;;;1.81;100.00
70930;BME280;58588;48.102;19.682;2023-04-26T02:13:15;98798.97;;;1.73;100.00
70930;BME280;58588;48.102;19.682;2023-04-26T02:16:18;98794.88;;;1.78;100.00
70930;BME280;58588;48.102;19.682;2023-04-26T02:19:20;98797.25;;;1.81;100.00
70930;BME280;58588;48.102;19.682;2023-04-26T02:22:23;98795.84;;;1.87;100.00
70930;BME280;58588;48.102;19.682;2023-04-26T02:25:27;98801.75;;;1.81;100.00
70930;BME280;58588;48.102;19.682;2023-04-26T02:28:29;98807.81;;;1.91;100.00
70930;BME280;58588;48.102;19.682;2023-04-26T02:31:31;98800.94;;;1.98;100.00
70930;BME280;58588;48.102;19.682;2023-04-26T02:34:35;98807.94;;;1.99;100.00
70930;BME280;58588;48.102;19.682;2023-04-26T02:37:37;98803.13;;;2.03;100.00
70930;BME280;58588;48.102;19.682;2023-04-26T02:40:40;98806.09;;;2.00;100.00
70930;BME280;58588;48.102;19.682;2023-04-26T02:43:42;98812.94;;;2.02;100.00
70930;BME280;58588;48.102;19.682;2023-04-26T02:46:44;98803.59;;;1.98;100.00
70930;BME280;58588;48.102;19.682;2023-04-26T02:49:46;98804.00;;;1.76;100.00
70930;BME280;58588;48.102;19.682;2023-04-26T02:52:48;98811.66;;;1.79;100.00
70930;BME280;58588;48.102;19.682;2023-04-26T02:55:52;98806.50;;;1.77;100.00
70930;BME280;58588;48.102;19.682;2023-04-26T02:58:54;98810.41;;;1.73;100.00
70930;BME280;58588;48.102;19.682;2023-04-26T03:01:56;98806.66;;;1.76;100.00
70930;BME280;58588;48.102;19.682;2023-04-26T03:04:58;98813.81;;;1.66;100.00
70930;BME280;58588;48.102;19.682;2023-04-26T03:08:00;98809.59;;;1.73;100.00
70930;BME280;58588;48.102;19.682;2023-04-26T03:11:04;98810.88;;;1.69;100.00
70930;BME280;58588;48.102;19.682;2023-04-26T03:14:06;98824.16;;;1.69;100.00
70930;BME280;58588;48.102;19.682;2023-04-26T03:17:08;98837.72;;;1.66;100.00
70930;BME280;58588;48.102;19.682;2023-04-26T03:20:11;98838.69;;;1.74;100.00
70930;BME280;58588;48.102;19.682;2023-04-26T03:23:13;98834.53;;;1.62;100.00
70930;BME280;58588;48.102;19.682;2023-04-26T03:26:16;98841.38;;;1.65;100.00
70930;BME280;58588;48.102;19.682;2023-04-26T03:29:19;98838.69;;;1.74;100.00
70930;BME280;58588;48.102;19.682;2023-04-26T03:32:21;98845.94;;;1.72;100.00
70930;BME280;58588;48.102;19.682;2023-04-26T03:35:23;98841.13;;;1.58;100.00
70930;BME280;58588;48.102;19.682;2023-04-26T03:38:25;98861.28;;;1.51;100.00
70930;BME280;58588;48.102;19.682;2023-04-26T03:41:28;98850.19;;;1.65;100.00
70930;BME280;58588;48.102;19.682;2023-04-26T03:44:30;98854.94;;;1.61;100.00
70930;BME280;58588;48.102;19.682;2023-04-26T03:47:32;98860.38;;;1.60;100.00
70930;BME280;58588;48.102;19.682;2023-04-26T03:50:34;98857.88;;;1.58;100.00
70930;BME280;58588;48.102;19.682;2023-04-26T03:53:36;98863.22;;;1.49;100.00
70930;BME280;58588;48.102;19.682;2023-04-26T03:56:40;98856.81;;;1.51;100.00
70930;BME280;58588;48.102;19.682;2023-04-26T03:59:42;98859.31;;;1.53;100.00
70930;BME280;58588;48.102;19.682;2023-04-26T04:02:44;98866.84;;;1.57;100.00
70930;BME280;58588;48.102;19.682;2023-04-26T04:05:46;98872.56;;;1.63;100.00
70930;BME280;58588;48.102;19.682;2023-04-26T04:08:48;98869.63;;;1.56;100.00
70930;BME280;58588;48.102;19.682;2023-04-26T04:11:51;98868.66;;;1.57;100.00
70930;BME280;58588;48.102;19.682;2023-04-26T04:14:54;98883.63;;;1.48;100.00
70930;BME280;58588;48.102;19.682;2023-04-26T04:17:56;98883.22;;;1.53;100.00
70930;BME280;58588;48.102;19.682;2023-04-26T04:20:58;98873.66;;;1.60;100.00
70930;BME280;58588;48.102;19.682;2023-04-26T04:24:00;98879.41;;;1.65;100.00
70930;BME280;58588;48.102;19.682;2023-04-26T04:27:03;98882.34;;;1.62;100.00
70930;BME280;58588;48.102;19.682;2023-04-26T04:30:06;98884.44;;;1.68;100.00
70930;BME280;58588;48.102;19.682;2023-04-26T04:33:09;98891.13;;;1.72;100.00
70930;BME280;58588;48.102;19.682;2023-04-26T04:36:12;98896.84;;;1.77;100.00
70930;BME280;58588;48.102;19.682;2023-04-26T04:39:16;98905.19;;;1.92;100.00
70930;BME280;58588;48.102;19.682;2023-04-26T04:42:20;98910.03;;;2.06;100.00
70930;BME280;58588;48.102;19.682;2023-04-26T04:45:22;98918.69;;;2.08;100.00
70930;BME280;58588;48.102;19.682;2023-04-26T04:48:24;98907.47;;;2.14;100.00
70930;BME280;58588;48.102;19.682;2023-04-26T04:51:27;98906.84;;;2.30;100.00
70930;BME280;58588;48.102;19.682;2023-04-26T04:54:29;98907.13;;;2.27;100.00
70930;BME280;58588;48.102;19.682;2023-04-26T04:57:32;98919.50;;;2.46;100.00
70930;BME280;58588;48.102;19.682;2023-04-26T05:00:34;98924.16;;;2.62;100.00
70930;BME280;58588;48.102;19.682;2023-04-26T05:03:37;98921.03;;;2.66;100.00
70930;BME280;58588;48.102;19.682;2023-04-26T05:06:39;98927.38;;;2.83;100.00
70930;BME280;58588;48.102;19.682;2023-04-26T05:09:41;98935.06;;;2.86;100.00
70930;BME280;58588;48.102;19.682;2023-04-26T05:12:45;98930.44;;;3.06;100.00
70930;BME280;58588;48.102;19.682;2023-04-26T05:15:47;98928.13;;;3.11;100.00
70930;BME280;58588;48.102;19.682;2023-04-26T05:18:49;98929.91;;;3.20;100.00
70930;BME280;58588;48.102;19.682;2023-04-26T05:21:51;98932.78;;;3.27;100.00
70930;BME280;58588;48.102;19.682;2023-04-26T05:24:53;98942.72;;;3.61;100.00
70930;BME280;58588;48.102;19.682;2023-04-26T05:27:56;98948.63;;;3.72;100.00
70930;BME280;58588;48.102;19.682;2023-04-26T05:30:59;98946.63;;;4.00;100.00
70930;BME280;58588;48.102;19.682;2023-04-26T05:34:01;98955.59;;;4.25;100.00
70930;BME280;58588;48.102;19.682;2023-04-26T05:37:03;98957.78;;;4.64;100.00
70930;BME280;58588;48.102;19.682;2023-04-26T05:40:08;98964.69;;;4.83;100.00
70930;BME280;58588;48.102;19.682;2023-04-26T05:43:13;98952.41;;;5.15;100.00
70930;BME280;58588;48.102;19.682;2023-04-26T05:46:15;98956.13;;;5.30;100.00
70930;BME280;58588;48.102;19.682;2023-04-26T05:49:17;98946.25;;;5.55;100.00
70930;BME280;58588;48.102;19.682;2023-04-26T05:52:19;98943.44;;;5.64;100.00
70930;BME280;58588;48.102;19.682;2023-04-26T05:55:22;98936.56;;;5.95;100.00
70930;BME280;58588;48.102;19.682;2023-04-26T05:58:25;98943.03;;;6.25;100.00
70930;BME280;58588;48.102;19.682;2023-04-26T06:01:27;98943.09;;;6.48;100.00
70930;BME280;58588;48.102;19.682;2023-04-26T06:04:29;98953.28;;;6.60;100.00
70930;BME280;58588;48.102;19.682;2023-04-26T06:07:31;98949.91;;;6.66;100.00
70930;BME280;58588;48.102;19.682;2023-04-26T06:10:34;98959.34;;;6.85;100.00
70930;BME280;58588;48.102;19.682;2023-04-26T06:13:38;98950.38;;;7.01;100.00
70930;BME280;58588;48.102;19.682;2023-04-26T06:16:40;98951.22;;;7.24;100.00
70930;BME280;58588;48.102;19.682;2023-04-26T06:19:42;98954.53;;;7.35;100.00
70930;BME280;58588;48.102;19.682;2023-04-26T06:22:44;98961.34;;;7.60;100.00
70930;BME280;58588;48.102;19.682;2023-04-26T06:25:46;98952.47;;;7.83;100.00
70930;BME280;58588;48.102;19.682;2023-04-26T06:28:49;98952.03;;;7.94;100.00
70930;BME280;58588;48.102;19.682;2023-04-26T06:31:53;98952.66;;;7.96;100.00
70930;BME280;58588;48.102;19.682;2023-04-26T06:34:55;98953.53;;;8.26;100.00
70930;BME280;58588;48.102;19.682;2023-04-26T06:37:57;98954.28;;;8.35;100.00
70930;BME280;58588;48.102;19.682;2023-04-26T06:40:59;98963.28;;;8.71;100.00
70930;BME280;58588;48.102;19.682;2023-04-26T06:44:02;98960.56;;;8.86;100.00
70930;BME280;58588;48.102;19.682;2023-04-26T06:47:04;98952.28;;;9.02;100.00
70930;BME280;58588;48.102;19.682;2023-04-26T06:50:09;98962.75;;;9.12;100.00
70930;BME280;58588;48.102;19.682;2023-04-26T06:53:12;98964.00;;;8.95;100.00
70930;BME280;58588;48.102;19.682;2023-04-26T06:56:14;98961.00;;;9.04;94.67
70930;BME280;58588;48.102;19.682;2023-04-26T06:59:17;98964.28;;;9.21;96.86
70930;BME280;58588;48.102;19.682;2023-04-26T07:02:19;98962.00;;;9.39;94.45
70930;BME280;58588;48.102;19.682;2023-04-26T07:05:22;98967.72;;;9.51;91.08
70930;BME280;58588;48.102;19.682;2023-04-26T07:08:24;98969.03;;;9.83;92.47
70930;BME280;58588;48.102;19.682;2023-04-26T07:11:26;98963.94;;;9.95;93.28
70930;BME280;58588;48.102;19.682;2023-04-26T07:14:30;98963.53;;;10.19;90.29
70930;BME280;58588;48.102;19.682;2023-04-26T07:17:32;98968.53;;;10.23;89.75
70930;BME280;58588;48.102;19.682;2023-04-26T07:20:34;98972.72;;;10.04;88.28
70930;BME280;58588;48.102;19.682;2023-04-26T07:23:36;98967.19;;;10.12;92.42
70930;BME280;58588;48.102;19.682;2023-04-26T07:26:38;98975.63;;;10.58;84.42
70930;BME280;58588;48.102;19.682;2023-04-26T07:29:42;98970.84;;;10.60;80.40
70930;BME280;58588;48.102;19.682;2023-04-26T07:32:44;98978.22;;;10.80;73.24
70930;BME280;58588;48.102;19.682;2023-04-26T07:35:52;98978.53;;;11.05;72.31
70930;BME280;58588;48.102;19.682;2023-04-26T07:38:54;98981.66;;;11.08;71.68
70930;BME280;58588;48.102;19.682;2023-04-26T07:41:56;98992.94;;;11.25;66.78
70930;BME280;58588;48.102;19.682;2023-04-26T07:45:00;98993.63;;;11.53;65.06
70930;BME280;58588;48.102;19.682;2023-04-26T07:48:03;98997.19;;;11.74;62.84
70930;BME280;58588;48.102;19.682;2023-04-26T07:51:09;98983.50;;;12.55;67.25
70930;BME280;58588;48.102;19.682;2023-04-26T07:54:12;98988.00;;;12.81;58.42
70930;BME280;58588;48.102;19.682;2023-04-26T07:57:14;98997.22;;;12.47;62.43
70930;BME280;58588;48.102;19.682;2023-04-26T08:00:18;99003.91;;;12.18;63.33
70930;BME280;58588;48.102;19.682;2023-04-26T08:03:21;99005.88;;;11.49;57.95
70930;BME280;58588;48.102;19.682;2023-04-26T08:06:23;99012.31;;;11.55;60.34
70930;BME280;58588;48.102;19.682;2023-04-26T08:09:26;99012.34;;;11.75;63.55
70930;BME280;58588;48.102;19.682;2023-04-26T08:12:28;99010.78;;;12.07;61.02
70930;BME280;58588;48.102;19.682;2023-04-26T08:15:32;99007.41;;;12.51;55.68
70930;BME280;58588;48.102;19.682;2023-04-26T08:18:34;99005.78;;;13.15;54.98
70930;BME280;58588;48.102;19.682;2023-04-26T08:21:36;99013.75;;;13.48;55.23
70930;BME280;58588;48.102;19.682;2023-04-26T08:24:38;99010.22;;;13.48;56.64
70930;BME280;58588;48.102;19.682;2023-04-26T08:27:40;99005.25;;;12.86;55.91
70930;BME280;58588;48.102;19.682;2023-04-26T08:30:45;99013.72;;;13.10;59.60
70930;BME280;58588;48.102;19.682;2023-04-26T08:33:47;99009.56;;;13.01;58.33
70930;BME280;58588;48.102;19.682;2023-04-26T08:36:49;99012.75;;;12.91;58.01
70930;BME280;58588;48.102;19.682;2023-04-26T08:39:51;99015.81;;;12.95;57.85
70930;BME280;58588;48.102;19.682;2023-04-26T08:42:54;99015.06;;;12.74;54.51
70930;BME280;58588;48.102;19.682;2023-04-26T08:45:57;99022.78;;;12.64;58.45
70930;BME280;58588;48.102;19.682;2023-04-26T08:49:16;99024.28;;;13.25;59.12
70930;BME280;58588;48.102;19.682;2023-04-26T08:52:23;99019.28;;;13.28;56.18
70930;BME280;58588;48.102;19.682;2023-04-26T08:55:28;99018.69;;;13.06;56.16
70930;BME280;58588;48.102;19.682;2023-04-26T08:58:31;99029.00;;;12.78;54.58
70930;BME280;58588;48.102;19.682;2023-04-26T09:01:36;99025.59;;;13.02;53.68
70930;BME280;58588;48.102;19.682;2023-04-26T09:04:40;99035.13;;;13.25;56.07
70930;BME280;58588;48.102;19.682;2023-04-26T09:07:44;99035.00;;;12.86;53.91
70930;BME280;58588;48.102;19.682;2023-04-26T09:10:46;99027.81;;;13.19;54.42
70930;BME280;58588;48.102;19.682;2023-04-26T09:13:48;99028.50;;;13.59;52.22
70930;BME280;58588;48.102;19.682;2023-04-26T09:16:52;99031.53;;;14.07;50.56
70930;BME280;58588;48.102;19.682;2023-04-26T09:19:55;99030.66;;;14.38;52.55
70930;BME280;58588;48.102;19.682;2023-04-26T09:23:04;99041.25;;;14.47;51.30
70930;BME280;58588;48.102;19.682;2023-04-26T09:26:16;99033.50;;;14.50;48.96
70930;BME280;58588;48.102;19.682;2023-04-26T09:29:19;99042.31;;;14.39;48.30
70930;BME280;58588;48.102;19.682;2023-04-26T09:32:22;99034.53;;;14.92;49.41
70930;BME280;58588;48.102;19.682;2023-04-26T09:35:30;99025.28;;;15.00;42.52
70930;BME280;58588;48.102;19.682;2023-04-26T09:38:41;99026.19;;;14.76;49.38
70930;BME280;58588;48.102;19.682;2023-04-26T09:41:43;99029.56;;;15.08;47.33
70930;BME280;58588;48.102;19.682;2023-04-26T09:44:45;99023.50;;;14.44;48.19
70930;BME280;58588;48.102;19.682;2023-04-26T09:47:49;99031.53;;;15.01;47.99
70930;BME280;58588;48.102;19.682;2023-04-26T09:50:52;99021.00;;;14.49;46.97
70930;BME280;58588;48.102;19.682;2023-04-26T09:53:55;99031.84;;;14.49;50.23
70930;BME280;58588;48.102;19.682;2023-04-26T09:56:59;99028.00;;;14.32;49.65
70930;BME280;58588;48.102;19.682;2023-04-26T10:00:06;99024.16;;;14.14;49.67
70930;BME280;58588;48.102;19.682;2023-04-26T10:03:12;99029.63;;;14.64;52.10
70930;BME280;58588;48.102;19.682;2023-04-26T10:06:14;99031.13;;;14.79;50.22
70930;BME280;58588;48.102;19.682;2023-04-26T10:09:17;99027.59;;;15.15;48.67
70930;BME280;58588;48.102;19.682;2023-04-26T10:12:19;99025.28;;;15.18;50.46
70930;BME280;58588;48.102;19.682;2023-04-26T10:15:21;99035.25;;;14.38;46.67
70930;BME280;58588;48.102;19.682;2023-04-26T10:18:24;99033.88;;;14.29;47.92
70930;BME280;58588;48.102;19.682;2023-04-26T10:21:30;99036.03;;;14.70;48.96
70930;BME280;58588;48.102;19.682;2023-04-26T10:24:35;99030.78;;;13.93;46.00
70930;BME280;58588;48.102;19.682;2023-04-26T10:27:48;99028.09;;;13.93;48.78
70930;BME280;58588;48.102;19.682;2023-04-26T10:30:54;99028.38;;;14.35;48.43
70930;BME280;58588;48.102;19.682;2023-04-26T10:34:20;99023.41;;;14.57;46.92
70930;BME280;58588;48.102;19.682;2023-04-26T10:37:22;99024.94;;;14.53;49.31
70930;BME280;58588;48.102;19.682;2023-04-26T10:40:26;99028.03;;;14.75;49.39
70930;BME280;58588;48.102;19.682;2023-04-26T10:43:28;99031.91;;;14.86;47.91
70930;BME280;58588;48.102;19.682;2023-04-26T10:46:34;99036.22;;;15.12;46.49
70930;BME280;58588;48.102;19.682;2023-04-26T10:49:44;99033.13;;;15.08;46.65
70930;BME280;58588;48.102;19.682;2023-04-26T10:53:05;99039.53;;;14.95;46.78
70930;BME280;58588;48.102;19.682;2023-04-26T10:56:07;99034.47;;;15.36;47.13
70930;BME280;58588;48.102;19.682;2023-04-26T10:59:10;99034.53;;;14.74;42.84
70930;BME280;58588;48.102;19.682;2023-04-26T11:02:12;99036.78;;;14.77;44.98
70930;BME280;58588;48.102;19.682;2023-04-26T11:05:38;99033.78;;;15.22;46.18
70930;BME280;58588;48.102;19.682;2023-04-26T11:08:41;99037.78;;;15.19;45.23
70930;BME280;58588;48.102;19.682;2023-04-26T11:11:50;99037.03;;;15.31;42.42
70930;BME280;58588;48.102;19.682;2023-04-26T11:14:53;99036.94;;;15.86;45.90
70930;BME280;58588;48.102;19.682;2023-04-26T11:17:56;99031.94;;;14.61;48.13
70930;BME280;58588;48.102;19.682;2023-04-26T11:20:59;99030.72;;;15.00;47.41
70930;BME280;58588;48.102;19.682;2023-04-26T11:24:02;99029.63;;;14.08;45.36
70930;BME280;58588;48.102;19.682;2023-04-26T11:27:07;99040.50;;;14.33;47.01
70930;BME280;58588;48.102;19.682;2023-04-26T11:30:11;99043.91;;;14.28;45.58
70930;BME280;58588;48.102;19.682;2023-04-26T11:33:17;99051.06;;;14.16;46.96
70930;BME280;58588;48.102;19.682;2023-04-26T11:36:21;99048.00;;;14.06;48.10
70930;BME280;58588;48.102;19.682;2023-04-26T11:39:24;99054.97;;;13.95;48.54
70930;BME280;58588;48.102;19.682;2023-04-26T11:42:26;99052.47;;;13.93;45.42
70930;BME280;58588;48.102;19.682;2023-04-26T11:45:30;99060.63;;;14.18;48.11
70930;BME280;58588;48.102;19.682;2023-04-26T11:48:33;99056.50;;;14.16;45.74
70930;BME280;58588;48.102;19.682;2023-04-26T11:51:37;99060.03;;;14.48;44.46
70930;BME280;58588;48.102;19.682;2023-04-26T11:54:39;99063.13;;;14.45;44.15
70930;BME280;58588;48.102;19.682;2023-04-26T11:57:43;99054.16;;;14.19;42.17
70930;BME280;58588;48.102;19.682;2023-04-26T12:00:55;99059.84;;;14.68;45.21
70930;BME280;58588;48.102;19.682;2023-04-26T12:03:58;99053.75;;;14.72;41.75
70930;BME280;58588;48.102;19.682;2023-04-26T12:07:03;99048.09;;;15.29;45.28
70930;BME280;58588;48.102;19.682;2023-04-26T12:10:16;99055.56;;;15.34;45.90
70930;BME280;58588;48.102;19.682;2023-04-26T12:13:19;99058.97;;;15.11;44.50
70930;BME280;58588;48.102;19.682;2023-04-26T12:16:21;99053.53;;;15.29;45.48
70930;BME280;58588;48.102;19.682;2023-04-26T12:19:23;99047.66;;;14.95;43.23
70930;BME280;58588;48.102;19.682;2023-04-26T12:22:27;99048.47;;;14.78;44.45
70930;BME280;58588;48.102;19.682;2023-04-26T12:25:30;99053.94;;;14.53;45.09
70930;BME280;58588;48.102;19.682;2023-04-26T12:28:32;99051.22;;;14.96;48.54
70930;BME280;58588;48.102;19.682;2023-04-26T12:31:34;99051.44;;;14.94;46.09
70930;BME280;58588;48.102;19.682;2023-04-26T12:34:36;99058.84;;;15.06;44.10
70930;BME280;58588;48.102;19.682;2023-04-26T12:37:40;99064.13;;;15.37;44.96
70930;BME280;58588;48.102;19.682;2023-04-26T12:40:43;99055.81;;;15.14;42.53
70930;BME280;58588;48.102;19.682;2023-04-26T12:43:45;99067.25;;;14.79;43.07
70930;BME280;58588;48.102;19.682;2023-04-26T12:46:47;99073.34;;;14.75;42.02
70930;BME280;58588;48.102;19.682;2023-04-26T12:49:50;99070.09;;;14.66;42.58
70930;BME280;58588;48.102;19.682;2023-04-26T12:52:54;99056.16;;;14.81;43.41
70930;BME280;58588;48.102;19.682;2023-04-26T12:55:56;99051.50;;;14.69;42.80
70930;BME280;58588;48.102;19.682;2023-04-26T12:59:01;99054.22;;;14.69;42.53
70930;BME280;58588;48.102;19.682;2023-04-26T13:02:03;99058.88;;;14.81;44.00
70930;BME280;58588;48.102;19.682;2023-04-26T13:05:06;99057.34;;;14.66;41.73
70930;BME280;58588;48.102;19.682;2023-04-26T13:08:09;99063.00;;;14.40;42.06
70930;BME280;58588;48.102;19.682;2023-04-26T13:11:11;99066.66;;;14.20;42.13
70930;BME280;58588;48.102;19.682;2023-04-26T13:14:14;99074.47;;;14.67;44.00
70930;BME280;58588;48.102;19.682;2023-04-26T13:17:16;99077.63;;;14.32;43.57
70930;BME280;58588;48.102;19.682;2023-04-26T13:20:18;99080.91;;;14.91;44.20
70930;BME280;58588;48.102;19.682;2023-04-26T13:23:21;99084.22;;;15.11;46.69
70930;BME280;58588;48.102;19.682;2023-04-26T13:26:24;99082.13;;;14.52;44.62
70930;BME280;58588;48.102;19.682;2023-04-26T13:29:26;99085.16;;;14.30;43.71
70930;BME280;58588;48.102;19.682;2023-04-26T13:32:29;99082.56;;;14.42;46.10
70930;BME280;58588;48.102;19.682;2023-04-26T13:35:31;99085.22;;;14.24;45.71
70930;BME280;58588;48.102;19.682;2023-04-26T13:38:42;99092.16;;;14.13;48.23
70930;BME280;58588;48.102;19.682;2023-04-26T13:41:59;99092.25;;;14.31;48.25
70930;BME280;58588;48.102;19.682;2023-04-26T13:45:01;99094.91;;;14.38;46.70
70930;BME280;58588;48.102;19.682;2023-04-26T13:48:06;99099.91;;;14.41;44.98
70930;BME280;58588;48.102;19.682;2023-04-26T13:51:08;99103.59;;;14.53;47.15
70930;BME280;58588;48.102;19.682;2023-04-26T13:54:12;99101.59;;;14.35;47.84
70930;BME280;58588;48.102;19.682;2023-04-26T13:57:14;99100.84;;;13.90;47.11
70930;BME280;58588;48.102;19.682;2023-04-26T14:00:17;99108.75;;;13.53;46.70
70930;BME280;58588;48.102;19.682;2023-04-26T14:03:19;99109.63;;;13.92;48.87
70930;BME280;58588;48.102;19.682;2023-04-26T14:06:21;99108.38;;;14.19;48.51
70930;BME280;58588;48.102;19.682;2023-04-26T14:09:25;99106.09;;;13.85;48.09
70930;BME280;58588;48.102;19.682;2023-04-26T14:12:28;99120.22;;;13.93;45.11
70930;BME280;58588;48.102;19.682;2023-04-26T14:15:30;99118.13;;;13.96;46.98
70930;BME280;58588;48.102;19.682;2023-04-26T14:18:32;99118.84;;;14.16;45.44
70930;BME280;58588;48.102;19.682;2023-04-26T14:21:34;99117.38;;;14.45;47.23
70930;BME280;58588;48.102;19.682;2023-04-26T14:24:37;99129.13;;;14.70;47.69
70930;BME280;58588;48.102;19.682;2023-04-26T14:27:39;99123.38;;;15.04;45.70
70930;BME280;58588;48.102;19.682;2023-04-26T14:30:42;99126.84;;;15.11;46.91
70930;BME280;58588;48.102;19.682;2023-04-26T14:33:45;99132.44;;;15.16;46.87
70930;BME280;58588;48.102;19.682;2023-04-26T14:36:47;99133.00;;;15.43;46.62
70930;BME280;58588;48.102;19.682;2023-04-26T14:39:51;99136.00;;;15.53;46.80
70930;BME280;58588;48.102;19.682;2023-04-26T14:42:53;99140.69;;;15.27;45.87
70930;BME280;58588;48.102;19.682;2023-04-26T14:45:55;99145.84;;;15.36;47.30
70930;BME280;58588;48.102;19.682;2023-04-26T14:48:57;99140.94;;;15.63;47.51
70930;BME280;58588;48.102;19.682;2023-04-26T14:51:59;99139.13;;;15.75;45.20
70930;BME280;58588;48.102;19.682;2023-04-26T14:55:04;99143.53;;;16.06;45.42
70930;BME280;58588;48.102;19.682;2023-04-26T14:58:06;99139.69;;;16.14;43.28
70930;BME280;58588;48.102;19.682;2023-04-26T15:01:08;99145.19;;;16.07;45.18
70930;BME280;58588;48.102;19.682;2023-04-26T15:04:10;99150.84;;;16.05;44.92
70930;BME280;58588;48.102;19.682;2023-04-26T15:07:12;99152.91;;;16.52;43.07
70930;BME280;58588;48.102;19.682;2023-04-26T15:10:16;99141.38;;;17.38;41.63
70930;BME280;58588;48.102;19.682;2023-04-26T15:13:18;99152.88;;;16.82;38.00
70930;BME280;58588;48.102;19.682;2023-04-26T15:16:20;99155.19;;;16.25;39.93
70930;BME280;58588;48.102;19.682;2023-04-26T15:19:22;99156.06;;;15.15;40.77
70930;BME280;58588;48.102;19.682;2023-04-26T15:22:24;99161.75;;;14.57;42.60
70930;BME280;58588;48.102;19.682;2023-04-26T15:25:28;99157.44;;;14.11;41.22
70930;BME280;58588;48.102;19.682;2023-04-26T15:28:30;99152.59;;;13.82;42.20
70930;BME280;58588;48.102;19.682;2023-04-26T15:31:33;99152.00;;;13.66;43.26
70930;BME280;58588;48.102;19.682;2023-04-26T15:34:38;99173.59;;;13.08;43.15
70930;BME280;58588;48.102;19.682;2023-04-26T15:37:43;99178.34;;;13.13;43.82
70930;BME280;58588;48.102;19.682;2023-04-26T15:40:46;99175.66;;;12.47;43.16
70930;BME280;58588;48.102;19.682;2023-04-26T15:43:52;99180.78;;;12.15;43.48
70930;BME280;58588;48.102;19.682;2023-04-26T15:46:54;99181.22;;;12.19;44.62
70930;BME280;58588;48.102;19.682;2023-04-26T15:50:00;99188.25;;;12.07;44.00
70930;BME280;58588;48.102;19.682;2023-04-26T15:53:03;99191.94;;;11.92;43.79
70930;BME280;58588;48.102;19.682;2023-04-26T15:56:13;99187.03;;;11.74;44.28
70930;BME280;58588;48.102;19.682;2023-04-26T15:59:16;99189.22;;;11.86;45.31